Villa Castelli, Argentina
Current Conditions -  °F | °C
As of 3:00 PM on Tuesday 21 Oct 2014 (Local Time) from SCSE Reporting Station
Broken Clouds Broken Clouds  
Wind Chill: 17°   Ceiling: 2700
Heat Index: 17°   Visibility: 6mi
Dew Point: 11°   Wind: 9mph
Humidity: 68%   Direction: 260°W
Pressure: 30"   Gusts: NA
Location:  29°S, 68.18°W
Report Text: SCSE 211800Z 26008KT 9999 BKN027 17/11 Q1016
Loading
Personal Weather Stations






























Interactive Weather Map
Tropical Storm Tracking
New forecast layout! Learn more

10-Day Weather Forecast

Advertisements
Track Severe Weather on mobile